sensor_id;sensor_type;location;lat;lon;timestamp;P1;durP1;ratioP1;P2;durP2;ratioP2
50671;SDS011;46021;55.882;37.654;2022-08-19T00:01:48;12.38;;;5.85;;
50671;SDS011;46021;55.882;37.654;2022-08-19T00:04:17;14.43;;;6.43;;
50671;SDS011;46021;55.882;37.654;2022-08-19T00:06:46;19.65;;;6.55;;
50671;SDS011;46021;55.882;37.654;2022-08-19T00:09:13;10.27;;;5.97;;
50671;SDS011;46021;55.882;37.654;2022-08-19T00:11:42;13.65;;;6.85;;
50671;SDS011;46021;55.882;37.654;2022-08-19T00:14:10;15.05;;;6.35;;
50671;SDS011;46021;55.882;37.654;2022-08-19T00:16:42;17.08;;;7.80;;
50671;SDS011;46021;55.882;37.654;2022-08-19T00:19:09;13.32;;;7.63;;
50671;SDS011;46021;55.882;37.654;2022-08-19T00:21:36;12.55;;;7.03;;
50671;SDS011;46021;55.882;37.654;2022-08-19T00:24:05;12.30;;;7.47;;
50671;SDS011;46021;55.882;37.654;2022-08-19T00:26:32;15.10;;;8.05;;
50671;SDS011;46021;55.882;37.654;2022-08-19T00:28:59;17.08;;;8.00;;
50671;SDS011;46021;55.882;37.654;2022-08-19T00:31:26;18.63;;;8.18;;
50671;SDS011;46021;55.882;37.654;2022-08-19T00:33:54;23.10;;;8.10;;
50671;SDS011;46021;55.882;37.654;2022-08-19T00:36:20;17.77;;;7.82;;
50671;SDS011;46021;55.882;37.654;2022-08-19T00:38:47;12.98;;;7.95;;
50671;SDS011;46021;55.882;37.654;2022-08-19T00:41:14;16.83;;;7.60;;
50671;SDS011;46021;55.882;37.654;2022-08-19T00:43:42;17.75;;;7.30;;
50671;SDS011;46021;55.882;37.654;2022-08-19T00:46:09;12.65;;;7.45;;
50671;SDS011;46021;55.882;37.654;2022-08-19T00:48:35;16.55;;;7.82;;
50671;SDS011;46021;55.882;37.654;2022-08-19T00:51:03;18.83;;;7.70;;
50671;SDS011;46021;55.882;37.654;2022-08-19T00:53:31;14.45;;;7.50;;
50671;SDS011;46021;55.882;37.654;2022-08-19T00:55:59;14.93;;;7.80;;
50671;SDS011;46021;55.882;37.654;2022-08-19T00:58:29;16.83;;;7.97;;
50671;SDS011;46021;55.882;37.654;2022-08-19T01:00:58;14.63;;;6.90;;
50671;SDS011;46021;55.882;37.654;2022-08-19T01:03:25;16.63;;;7.68;;
50671;SDS011;46021;55.882;37.654;2022-08-19T01:05:52;13.00;;;6.57;;
50671;SDS011;46021;55.882;37.654;2022-08-19T01:08:21;12.95;;;7.25;;
50671;SDS011;46021;55.882;37.654;2022-08-19T01:10:49;15.82;;;7.05;;
50671;SDS011;46021;55.882;37.654;2022-08-19T01:13:19;14.48;;;6.97;;
50671;SDS011;46021;55.882;37.654;2022-08-19T01:15:48;15.85;;;6.90;;
50671;SDS011;46021;55.882;37.654;2022-08-19T01:18:18;13.63;;;6.80;;
50671;SDS011;46021;55.882;37.654;2022-08-19T01:20:46;12.85;;;6.28;;
50671;SDS011;46021;55.882;37.654;2022-08-19T01:23:14;12.73;;;7.00;;
50671;SDS011;46021;55.882;37.654;2022-08-19T01:25:42;12.93;;;6.72;;
50671;SDS011;46021;55.882;37.654;2022-08-19T01:28:15;12.32;;;6.25;;
50671;SDS011;46021;55.882;37.654;2022-08-19T01:30:43;12.23;;;6.57;;
50671;SDS011;46021;55.882;37.654;2022-08-19T01:33:10;12.48;;;6.28;;
50671;SDS011;46021;55.882;37.654;2022-08-19T01:35:37;19.00;;;7.25;;
50671;SDS011;46021;55.882;37.654;2022-08-19T01:38:05;15.40;;;7.13;;
50671;SDS011;46021;55.882;37.654;2022-08-19T01:40:35;15.02;;;7.22;;
50671;SDS011;46021;55.882;37.654;2022-08-19T01:43:04;13.02;;;6.50;;
50671;SDS011;46021;55.882;37.654;2022-08-19T01:45:32;14.93;;;6.93;;
50671;SDS011;46021;55.882;37.654;2022-08-19T01:47:59;21.17;;;6.88;;
50671;SDS011;46021;55.882;37.654;2022-08-19T01:50:26;12.33;;;6.53;;
50671;SDS011;46021;55.882;37.654;2022-08-19T01:52:53;15.10;;;6.80;;
50671;SDS011;46021;55.882;37.654;2022-08-19T01:55:20;16.17;;;6.95;;
50671;SDS011;46021;55.882;37.654;2022-08-19T01:57:50;15.15;;;6.47;;
50671;SDS011;46021;55.882;37.654;2022-08-19T02:00:22;11.70;;;6.32;;
50671;SDS011;46021;55.882;37.654;2022-08-19T02:02:50;17.98;;;6.68;;
50671;SDS011;46021;55.882;37.654;2022-08-19T02:05:17;13.30;;;6.13;;
50671;SDS011;46021;55.882;37.654;2022-08-19T02:07:46;14.27;;;6.60;;
50671;SDS011;46021;55.882;37.654;2022-08-19T02:10:15;13.98;;;7.00;;
50671;SDS011;46021;55.882;37.654;2022-08-19T02:12:43;18.35;;;6.50;;
50671;SDS011;46021;55.882;37.654;2022-08-19T02:15:10;18.73;;;6.97;;
50671;SDS011;46021;55.882;37.654;2022-08-19T02:17:38;10.57;;;5.68;;
50671;SDS011;46021;55.882;37.654;2022-08-19T02:20:06;12.82;;;6.75;;
50671;SDS011;46021;55.882;37.654;2022-08-19T02:22:33;14.82;;;6.32;;
50671;SDS011;46021;55.882;37.654;2022-08-19T02:25:00;11.88;;;6.45;;
50671;SDS011;46021;55.882;37.654;2022-08-19T02:27:30;11.30;;;6.80;;
50671;SDS011;46021;55.882;37.654;2022-08-19T02:29:57;14.98;;;6.25;;
50671;SDS011;46021;55.882;37.654;2022-08-19T02:32:24;18.73;;;5.57;;
50671;SDS011;46021;55.882;37.654;2022-08-19T02:34:51;13.02;;;5.40;;
50671;SDS011;46021;55.882;37.654;2022-08-19T02:37:18;12.07;;;6.20;;
50671;SDS011;46021;55.882;37.654;2022-08-19T02:40:03;12.30;;;6.00;;
50671;SDS011;46021;55.882;37.654;2022-08-19T02:42:30;8.90;;;4.97;;
50671;SDS011;46021;55.882;37.654;2022-08-19T02:44:57;14.90;;;6.20;;
50671;SDS011;46021;55.882;37.654;2022-08-19T02:47:24;11.82;;;6.05;;
50671;SDS011;46021;55.882;37.654;2022-08-19T02:49:51;14.48;;;5.85;;
50671;SDS011;46021;55.882;37.654;2022-08-19T02:52:17;14.90;;;6.25;;
50671;SDS011;46021;55.882;37.654;2022-08-19T02:54:44;8.93;;;5.15;;
50671;SDS011;46021;55.882;37.654;2022-08-19T02:57:11;15.77;;;5.93;;
50671;SDS011;46021;55.882;37.654;2022-08-19T02:59:37;12.52;;;6.53;;
50671;SDS011;46021;55.882;37.654;2022-08-19T03:02:05;12.57;;;6.10;;
50671;SDS011;46021;55.882;37.654;2022-08-19T03:04:32;13.10;;;5.82;;
50671;SDS011;46021;55.882;37.654;2022-08-19T03:06:59;12.98;;;6.18;;
50671;SDS011;46021;55.882;37.654;2022-08-19T03:09:25;8.27;;;5.10;;
50671;SDS011;46021;55.882;37.654;2022-08-19T03:11:52;17.02;;;5.75;;
50671;SDS011;46021;55.882;37.654;2022-08-19T03:14:18;11.70;;;5.78;;
50671;SDS011;46021;55.882;37.654;2022-08-19T03:16:46;14.48;;;6.03;;
50671;SDS011;46021;55.882;37.654;2022-08-19T03:19:16;12.57;;;5.43;;
50671;SDS011;46021;55.882;37.654;2022-08-19T03:21:44;13.48;;;5.28;;
50671;SDS011;46021;55.882;37.654;2022-08-19T03:24:12;11.45;;;5.35;;
50671;SDS011;46021;55.882;37.654;2022-08-19T03:26:41;13.00;;;5.53;;
50671;SDS011;46021;55.882;37.654;2022-08-19T03:29:09;9.13;;;4.93;;
50671;SDS011;46021;55.882;37.654;2022-08-19T03:31:36;14.02;;;5.10;;
50671;SDS011;46021;55.882;37.654;2022-08-19T03:34:04;8.40;;;5.35;;
50671;SDS011;46021;55.882;37.654;2022-08-19T03:36:31;15.05;;;5.35;;
50671;SDS011;46021;55.882;37.654;2022-08-19T03:38:59;10.98;;;4.70;;
50671;SDS011;46021;55.882;37.654;2022-08-19T03:41:28;9.55;;;4.25;;
50671;SDS011;46021;55.882;37.654;2022-08-19T03:43:55;11.07;;;5.35;;
50671;SDS011;46021;55.882;37.654;2022-08-19T03:46:23;7.90;;;4.72;;
50671;SDS011;46021;55.882;37.654;2022-08-19T03:48:53;10.05;;;5.15;;
50671;SDS011;46021;55.882;37.654;2022-08-19T03:51:22;12.85;;;5.20;;
50671;SDS011;46021;55.882;37.654;2022-08-19T03:53:50;9.45;;;4.30;;
50671;SDS011;46021;55.882;37.654;2022-08-19T03:58:44;9.48;;;4.22;;
50671;SDS011;46021;55.882;37.654;2022-08-19T04:01:12;15.32;;;4.05;;
50671;SDS011;46021;55.882;37.654;2022-08-19T04:03:43;12.13;;;3.90;;
50671;SDS011;46021;55.882;37.654;2022-08-19T04:06:11;9.82;;;4.03;;
50671;SDS011;46021;55.882;37.654;2022-08-19T04:08:38;6.55;;;4.20;;
50671;SDS011;46021;55.882;37.654;2022-08-19T04:11:06;9.90;;;4.47;;
50671;SDS011;46021;55.882;37.654;2022-08-19T04:13:34;7.47;;;4.07;;
50671;SDS011;46021;55.882;37.654;2022-08-19T04:16:01;15.23;;;5.57;;
50671;SDS011;46021;55.882;37.654;2022-08-19T04:18:29;8.82;;;4.00;;
50671;SDS011;46021;55.882;37.654;2022-08-19T04:20:56;10.55;;;3.65;;
50671;SDS011;46021;55.882;37.654;2022-08-19T04:23:23;8.55;;;3.85;;
50671;SDS011;46021;55.882;37.654;2022-08-19T04:25:49;7.45;;;3.58;;
50671;SDS011;46021;55.882;37.654;2022-08-19T04:28:16;11.98;;;4.10;;
50671;SDS011;46021;55.882;37.654;2022-08-19T04:30:44;10.90;;;3.50;;
50671;SDS011;46021;55.882;37.654;2022-08-19T04:33:13;13.43;;;4.10;;
50671;SDS011;46021;55.882;37.654;2022-08-19T04:35:43;8.77;;;3.90;;
50671;SDS011;46021;55.882;37.654;2022-08-19T04:38:12;12.50;;;3.95;;
50671;SDS011;46021;55.882;37.654;2022-08-19T04:40:39;14.13;;;3.45;;
50671;SDS011;46021;55.882;37.654;2022-08-19T04:43:24;12.00;;;3.67;;
50671;SDS011;46021;55.882;37.654;2022-08-19T04:45:52;35.15;;;14.85;;
50671;SDS011;46021;55.882;37.654;2022-08-19T04:48:19;15.60;;;5.00;;
50671;SDS011;46021;55.882;37.654;2022-08-19T04:50:50;8.82;;;4.15;;
50671;SDS011;46021;55.882;37.654;2022-08-19T04:53:23;8.38;;;3.75;;
50671;SDS011;46021;55.882;37.654;2022-08-19T04:58:17;7.13;;;3.75;;
50671;SDS011;46021;55.882;37.654;2022-08-19T05:00:43;5.33;;;3.20;;
50671;SDS011;46021;55.882;37.654;2022-08-19T05:03:10;11.20;;;3.43;;
50671;SDS011;46021;55.882;37.654;2022-08-19T05:05:39;5.50;;;3.20;;
50671;SDS011;46021;55.882;37.654;2022-08-19T05:08:06;7.28;;;3.58;;
50671;SDS011;46021;55.882;37.654;2022-08-19T05:10:34;10.30;;;4.05;;
50671;SDS011;46021;55.882;37.654;2022-08-19T05:13:02;8.50;;;3.55;;
50671;SDS011;46021;55.882;37.654;2022-08-19T05:17:55;8.48;;;3.53;;
50671;SDS011;46021;55.882;37.654;2022-08-19T05:20:40;5.68;;;3.30;;
50671;SDS011;46021;55.882;37.654;2022-08-19T05:23:24;6.78;;;3.20;;
50671;SDS011;46021;55.882;37.654;2022-08-19T05:25:51;11.20;;;4.90;;
50671;SDS011;46021;55.882;37.654;2022-08-19T05:28:18;12.95;;;4.00;;
50671;SDS011;46021;55.882;37.654;2022-08-19T05:30:46;6.80;;;3.40;;
50671;SDS011;46021;55.882;37.654;2022-08-19T05:33:15;8.63;;;3.60;;
50671;SDS011;46021;55.882;37.654;2022-08-19T05:35:43;9.73;;;3.55;;
50671;SDS011;46021;55.882;37.654;2022-08-19T05:40:37;24.30;;;5.38;;
50671;SDS011;46021;55.882;37.654;2022-08-19T05:43:05;14.25;;;5.95;;
50671;SDS011;46021;55.882;37.654;2022-08-19T05:45:37;7.15;;;4.55;;
50671;SDS011;46021;55.882;37.654;2022-08-19T05:48:04;8.95;;;4.18;;
50671;SDS011;46021;55.882;37.654;2022-08-19T05:50:31;12.00;;;4.37;;
50671;SDS011;46021;55.882;37.654;2022-08-19T05:52:58;10.57;;;5.00;;
50671;SDS011;46021;55.882;37.654;2022-08-19T05:55:25;12.57;;;4.65;;
50671;SDS011;46021;55.882;37.654;2022-08-19T05:57:52;28.30;;;13.87;;
50671;SDS011;46021;55.882;37.654;2022-08-19T06:00:18;12.57;;;6.00;;
50671;SDS011;46021;55.882;37.654;2022-08-19T06:02:45;11.20;;;5.25;;
50671;SDS011;46021;55.882;37.654;2022-08-19T06:05:12;10.17;;;5.10;;
50671;SDS011;46021;55.882;37.654;2022-08-19T06:07:39;11.40;;;4.53;;
50671;SDS011;46021;55.882;37.654;2022-08-19T06:10:08;7.35;;;4.20;;
50671;SDS011;46021;55.882;37.654;2022-08-19T06:12:37;10.55;;;4.30;;
50671;SDS011;46021;55.882;37.654;2022-08-19T06:15:05;11.93;;;4.30;;
50671;SDS011;46021;55.882;37.654;2022-08-19T06:17:34;13.02;;;4.03;;
50671;SDS011;46021;55.882;37.654;2022-08-19T06:20:00;8.00;;;3.47;;
50671;SDS011;46021;55.882;37.654;2022-08-19T06:22:28;8.02;;;3.70;;
50671;SDS011;46021;55.882;37.654;2022-08-19T06:24:55;12.02;;;3.50;;
50671;SDS011;46021;55.882;37.654;2022-08-19T06:27:24;13.13;;;4.43;;
50671;SDS011;46021;55.882;37.654;2022-08-19T06:29:50;6.95;;;3.28;;
50671;SDS011;46021;55.882;37.654;2022-08-19T06:32:17;14.50;;;4.20;;
50671;SDS011;46021;55.882;37.654;2022-08-19T06:34:44;11.35;;;3.80;;
50671;SDS011;46021;55.882;37.654;2022-08-19T06:37:10;13.33;;;3.83;;
50671;SDS011;46021;55.882;37.654;2022-08-19T06:39:39;7.82;;;4.00;;
50671;SDS011;46021;55.882;37.654;2022-08-19T06:42:07;13.88;;;5.78;;
50671;SDS011;46021;55.882;37.654;2022-08-19T06:44:39;6.88;;;3.70;;
50671;SDS011;46021;55.882;37.654;2022-08-19T06:47:08;13.05;;;4.45;;
50671;SDS011;46021;55.882;37.654;2022-08-19T06:49:35;12.68;;;4.40;;
50671;SDS011;46021;55.882;37.654;2022-08-19T06:52:02;13.00;;;3.90;;
50671;SDS011;46021;55.882;37.654;2022-08-19T06:54:30;34.95;;;4.80;;
50671;SDS011;46021;55.882;37.654;2022-08-19T06:56:57;10.60;;;4.07;;
50671;SDS011;46021;55.882;37.654;2022-08-19T06:59:24;15.93;;;4.20;;
50671;SDS011;46021;55.882;37.654;2022-08-19T07:01:53;10.05;;;3.83;;
50671;SDS011;46021;55.882;37.654;2022-08-19T07:04:22;7.97;;;3.63;;
50671;SDS011;46021;55.882;37.654;2022-08-19T07:06:56;9.60;;;3.65;;
50671;SDS011;46021;55.882;37.654;2022-08-19T07:09:24;8.18;;;3.35;;
50671;SDS011;46021;55.882;37.654;2022-08-19T07:11:51;9.48;;;3.53;;
50671;SDS011;46021;55.882;37.654;2022-08-19T07:14:20;20.63;;;4.50;;
50671;SDS011;46021;55.882;37.654;2022-08-19T07:16:50;9.13;;;3.88;;
50671;SDS011;46021;55.882;37.654;2022-08-19T07:19:18;7.75;;;3.75;;
50671;SDS011;46021;55.882;37.654;2022-08-19T07:21:45;6.25;;;3.58;;
50671;SDS011;46021;55.882;37.654;2022-08-19T07:24:13;5.95;;;3.42;;
50671;SDS011;46021;55.882;37.654;2022-08-19T07:26:42;14.75;;;3.40;;
50671;SDS011;46021;55.882;37.654;2022-08-19T07:29:10;8.32;;;3.40;;
50671;SDS011;46021;55.882;37.654;2022-08-19T07:31:37;8.05;;;3.67;;
50671;SDS011;46021;55.882;37.654;2022-08-19T07:34:04;4.72;;;3.08;;
50671;SDS011;46021;55.882;37.654;2022-08-19T07:36:33;7.25;;;3.10;;
50671;SDS011;46021;55.882;37.654;2022-08-19T07:39:04;9.35;;;3.08;;
50671;SDS011;46021;55.882;37.654;2022-08-19T07:41:32;19.88;;;3.30;;
50671;SDS011;46021;55.882;37.654;2022-08-19T07:43:58;10.18;;;3.30;;
50671;SDS011;46021;55.882;37.654;2022-08-19T07:46:29;14.27;;;3.47;;
50671;SDS011;46021;55.882;37.654;2022-08-19T07:48:57;14.63;;;3.72;;
50671;SDS011;46021;55.882;37.654;2022-08-19T07:51:24;4.68;;;3.10;;
50671;SDS011;46021;55.882;37.654;2022-08-19T07:53:51;9.60;;;3.37;;
50671;SDS011;46021;55.882;37.654;2022-08-19T07:56:18;13.68;;;3.05;;
50671;SDS011;46021;55.882;37.654;2022-08-19T07:58:46;19.55;;;3.53;;
50671;SDS011;46021;55.882;37.654;2022-08-19T08:01:15;7.25;;;2.92;;
50671;SDS011;46021;55.882;37.654;2022-08-19T08:03:45;5.50;;;3.03;;
50671;SDS011;46021;55.882;37.654;2022-08-19T08:06:29;19.63;;;2.72;;
50671;SDS011;46021;55.882;37.654;2022-08-19T08:09:15;10.73;;;3.00;;
50671;SDS011;46021;55.882;37.654;2022-08-19T08:11:47;8.40;;;3.33;;
50671;SDS011;46021;55.882;37.654;2022-08-19T08:14:16;9.98;;;2.92;;
50671;SDS011;46021;55.882;37.654;2022-08-19T08:16:46;8.40;;;3.10;;
50671;SDS011;46021;55.882;37.654;2022-08-19T08:19:13;11.90;;;3.17;;
50671;SDS011;46021;55.882;37.654;2022-08-19T08:21:40;12.57;;;3.42;;
50671;SDS011;46021;55.882;37.654;2022-08-19T08:24:07;10.32;;;3.30;;
50671;SDS011;46021;55.882;37.654;2022-08-19T08:26:35;11.88;;;3.65;;
50671;SDS011;46021;55.882;37.654;2022-08-19T08:31:28;13.55;;;2.92;;
50671;SDS011;46021;55.882;37.654;2022-08-19T08:33:54;16.00;;;3.58;;
50671;SDS011;46021;55.882;37.654;2022-08-19T08:36:21;7.68;;;3.42;;
50671;SDS011;46021;55.882;37.654;2022-08-19T08:38:47;13.65;;;3.28;;
50671;SDS011;46021;55.882;37.654;2022-08-19T08:41:17;11.85;;;3.33;;
50671;SDS011;46021;55.882;37.654;2022-08-19T08:43:49;7.70;;;3.05;;
50671;SDS011;46021;55.882;37.654;2022-08-19T08:46:19;11.43;;;3.17;;
50671;SDS011;46021;55.882;37.654;2022-08-19T08:48:51;6.68;;;3.15;;
50671;SDS011;46021;55.882;37.654;2022-08-19T08:51:24;7.88;;;3.65;;
50671;SDS011;46021;55.882;37.654;2022-08-19T08:53:54;8.27;;;3.20;;
50671;SDS011;46021;55.882;37.654;2022-08-19T08:56:22;13.27;;;3.63;;
50671;SDS011;46021;55.882;37.654;2022-08-19T08:58:51;7.15;;;3.42;;
50671;SDS011;46021;55.882;37.654;2022-08-19T09:01:23;10.80;;;3.50;;
50671;SDS011;46021;55.882;37.654;2022-08-19T09:03:50;7.28;;;3.58;;
50671;SDS011;46021;55.882;37.654;2022-08-19T09:08:54;5.13;;;3.30;;
50671;SDS011;46021;55.882;37.654;2022-08-19T09:11:31;6.00;;;3.17;;
50671;SDS011;46021;55.882;37.654;2022-08-19T09:14:10;8.00;;;3.35;;
50671;SDS011;46021;55.882;37.654;2022-08-19T09:16:46;9.68;;;3.47;;
50671;SDS011;46021;55.882;37.654;2022-08-19T09:19:15;5.70;;;3.35;;
50671;SDS011;46021;55.882;37.654;2022-08-19T09:21:43;6.72;;;3.63;;
50671;SDS011;46021;55.882;37.654;2022-08-19T09:24:10;8.38;;;3.58;;
50671;SDS011;46021;55.882;37.654;2022-08-19T09:26:37;7.38;;;3.50;;
50671;SDS011;46021;55.882;37.654;2022-08-19T09:29:04;7.85;;;3.55;;
50671;SDS011;46021;55.882;37.654;2022-08-19T09:31:32;7.45;;;3.10;;
50671;SDS011;46021;55.882;37.654;2022-08-19T09:33:59;8.23;;;3.60;;
50671;SDS011;46021;55.882;37.654;2022-08-19T09:36:30;6.15;;;3.63;;
50671;SDS011;46021;55.882;37.654;2022-08-19T09:38:58;8.55;;;3.83;;
50671;SDS011;46021;55.882;37.654;2022-08-19T09:41:25;9.75;;;4.28;;
50671;SDS011;46021;55.882;37.654;2022-08-19T09:43:53;7.20;;;3.67;;
50671;SDS011;46021;55.882;37.654;2022-08-19T09:46:21;17.00;;;6.72;;
50671;SDS011;46021;55.882;37.654;2022-08-19T09:48:50;6.07;;;3.78;;
50671;SDS011;46021;55.882;37.654;2022-08-19T09:51:18;11.13;;;3.95;;
50671;SDS011;46021;55.882;37.654;2022-08-19T09:53:47;6.30;;;3.00;;
50671;SDS011;46021;55.882;37.654;2022-08-19T09:56:15;13.80;;;3.72;;
50671;SDS011;46021;55.882;37.654;2022-08-19T09:58:43;5.97;;;3.65;;
50671;SDS011;46021;55.882;37.654;2022-08-19T10:01:14;9.45;;;4.28;;
50671;SDS011;46021;55.882;37.654;2022-08-19T10:03:46;12.05;;;5.22;;
50671;SDS011;46021;55.882;37.654;2022-08-19T10:06:14;18.73;;;4.18;;
50671;SDS011;46021;55.882;37.654;2022-08-19T10:08:41;12.35;;;4.53;;
50671;SDS011;46021;55.882;37.654;2022-08-19T10:11:08;8.88;;;4.70;;
50671;SDS011;46021;55.882;37.654;2022-08-19T10:13:35;12.10;;;4.97;;
50671;SDS011;46021;55.882;37.654;2022-08-19T10:16:03;10.75;;;7.13;;
50671;SDS011;46021;55.882;37.654;2022-08-19T10:18:33;12.00;;;5.13;;
50671;SDS011;46021;55.882;37.654;2022-08-19T10:21:03;12.30;;;4.57;;
50671;SDS011;46021;55.882;37.654;2022-08-19T10:23:35;9.45;;;4.15;;
50671;SDS011;46021;55.882;37.654;2022-08-19T10:26:02;7.45;;;3.75;;
50671;SDS011;46021;55.882;37.654;2022-08-19T10:28:32;9.70;;;4.15;;
50671;SDS011;46021;55.882;37.654;2022-08-19T10:31:18;9.82;;;4.15;;
50671;SDS011;46021;55.882;37.654;2022-08-19T10:33:48;11.30;;;4.20;;
50671;SDS011;46021;55.882;37.654;2022-08-19T10:36:18;9.85;;;4.25;;
50671;SDS011;46021;55.882;37.654;2022-08-19T10:38:47;10.45;;;3.97;;
50671;SDS011;46021;55.882;37.654;2022-08-19T10:41:18;12.00;;;3.83;;
50671;SDS011;46021;55.882;37.654;2022-08-19T10:43:50;14.93;;;3.97;;
50671;SDS011;46021;55.882;37.654;2022-08-19T10:46:17;9.90;;;3.13;;
50671;SDS011;46021;55.882;37.654;2022-08-19T10:48:44;8.02;;;2.92;;
50671;SDS011;46021;55.882;37.654;2022-08-19T10:51:11;7.78;;;3.17;;
50671;SDS011;46021;55.882;37.654;2022-08-19T10:53:57;8.60;;;3.00;;
50671;SDS011;46021;55.882;37.654;2022-08-19T10:56:24;9.63;;;3.10;;
50671;SDS011;46021;55.882;37.654;2022-08-19T10:59:09;8.07;;;3.28;;
50671;SDS011;46021;55.882;37.654;2022-08-19T11:01:39;10.52;;;3.13;;
50671;SDS011;46021;55.882;37.654;2022-08-19T11:04:06;10.52;;;4.25;;
50671;SDS011;46021;55.882;37.654;2022-08-19T11:06:39;13.45;;;3.35;;
50671;SDS011;46021;55.882;37.654;2022-08-19T11:09:07;9.45;;;3.33;;
50671;SDS011;46021;55.882;37.654;2022-08-19T11:11:34;14.77;;;3.35;;
50671;SDS011;46021;55.882;37.654;2022-08-19T11:14:09;5.20;;;3.00;;
50671;SDS011;46021;55.882;37.654;2022-08-19T11:16:39;5.93;;;2.95;;
50671;SDS011;46021;55.882;37.654;2022-08-19T11:19:08;10.32;;;2.65;;
50671;SDS011;46021;55.882;37.654;2022-08-19T11:21:37;5.53;;;2.40;;
50671;SDS011;46021;55.882;37.654;2022-08-19T11:24:05;20.75;;;3.63;;
50671;SDS011;46021;55.882;37.654;2022-08-19T11:26:35;12.82;;;3.55;;
50671;SDS011;46021;55.882;37.654;2022-08-19T11:29:03;9.52;;;3.28;;
50671;SDS011;46021;55.882;37.654;2022-08-19T11:31:36;7.28;;;3.08;;
50671;SDS011;46021;55.882;37.654;2022-08-19T11:34:05;14.10;;;3.63;;
50671;SDS011;46021;55.882;37.654;2022-08-19T11:36:33;12.80;;;4.13;;
50671;SDS011;46021;55.882;37.654;2022-08-19T11:39:00;9.48;;;3.00;;
50671;SDS011;46021;55.882;37.654;2022-08-19T11:41:31;7.00;;;3.25;;
50671;SDS011;46021;55.882;37.654;2022-08-19T11:43:58;10.10;;;3.08;;
50671;SDS011;46021;55.882;37.654;2022-08-19T11:46:25;6.40;;;3.83;;
50671;SDS011;46021;55.882;37.654;2022-08-19T11:48:52;10.23;;;3.53;;
50671;SDS011;46021;55.882;37.654;2022-08-19T11:53:47;11.50;;;4.03;;
50671;SDS011;46021;55.882;37.654;2022-08-19T11:56:15;6.40;;;3.53;;
50671;SDS011;46021;55.882;37.654;2022-08-19T12:01:20;13.02;;;4.47;;
50671;SDS011;46021;55.882;37.654;2022-08-19T12:03:49;6.05;;;2.25;;
50671;SDS011;46021;55.882;37.654;2022-08-19T12:06:19;9.45;;;3.10;;
50671;SDS011;46021;55.882;37.654;2022-08-19T12:08:51;9.27;;;2.92;;
50671;SDS011;46021;55.882;37.654;2022-08-19T12:11:17;11.43;;;3.58;;
50671;SDS011;46021;55.882;37.654;2022-08-19T12:13:44;7.07;;;3.17;;
50671;SDS011;46021;55.882;37.654;2022-08-19T12:16:12;7.18;;;3.10;;
50671;SDS011;46021;55.882;37.654;2022-08-19T12:18:41;10.75;;;2.85;;
50671;SDS011;46021;55.882;37.654;2022-08-19T12:21:11;6.22;;;2.40;;
50671;SDS011;46021;55.882;37.654;2022-08-19T12:23:39;8.07;;;3.35;;
50671;SDS011;46021;55.882;37.654;2022-08-19T12:26:06;9.30;;;2.80;;
50671;SDS011;46021;55.882;37.654;2022-08-19T12:28:34;9.30;;;2.90;;
50671;SDS011;46021;55.882;37.654;2022-08-19T12:31:01;11.52;;;4.43;;
50671;SDS011;46021;55.882;37.654;2022-08-19T12:33:28;10.30;;;3.63;;
50671;SDS011;46021;55.882;37.654;2022-08-19T12:35:55;9.07;;;3.00;;
50671;SDS011;46021;55.882;37.654;2022-08-19T12:38:27;8.48;;;2.92;;
50671;SDS011;46021;55.882;37.654;2022-08-19T12:40:54;10.07;;;3.17;;
50671;SDS011;46021;55.882;37.654;2022-08-19T12:43:20;11.48;;;3.38;;
50671;SDS011;46021;55.882;37.654;2022-08-19T12:45:47;8.23;;;3.35;;
50671;SDS011;46021;55.882;37.654;2022-08-19T12:48:14;10.90;;;3.30;;
50671;SDS011;46021;55.882;37.654;2022-08-19T12:50:42;5.80;;;3.08;;
50671;SDS011;46021;55.882;37.654;2022-08-19T12:53:10;15.45;;;3.30;;
50671;SDS011;46021;55.882;37.654;2022-08-19T12:55:37;6.60;;;2.90;;
50671;SDS011;46021;55.882;37.654;2022-08-19T12:58:04;8.02;;;3.70;;
50671;SDS011;46021;55.882;37.654;2022-08-19T13:00:30;14.45;;;4.03;;
50671;SDS011;46021;55.882;37.654;2022-08-19T13:02:58;10.40;;;3.53;;
50671;SDS011;46021;55.882;37.654;2022-08-19T13:05:26;7.00;;;3.63;;
50671;SDS011;46021;55.882;37.654;2022-08-19T13:07:57;9.20;;;3.20;;
50671;SDS011;46021;55.882;37.654;2022-08-19T13:10:26;7.43;;;3.15;;
50671;SDS011;46021;55.882;37.654;2022-08-19T13:12:54;7.43;;;2.83;;
50671;SDS011;46021;55.882;37.654;2022-08-19T13:15:22;8.13;;;2.83;;
50671;SDS011;46021;55.882;37.654;2022-08-19T13:17:49;8.43;;;3.13;;
50671;SDS011;46021;55.882;37.654;2022-08-19T13:20:18;12.65;;;2.83;;
50671;SDS011;46021;55.882;37.654;2022-08-19T13:22:46;6.25;;;3.10;;
50671;SDS011;46021;55.882;37.654;2022-08-19T13:25:15;6.65;;;3.33;;
50671;SDS011;46021;55.882;37.654;2022-08-19T13:27:43;12.32;;;2.80;;
50671;SDS011;46021;55.882;37.654;2022-08-19T13:30:11;9.05;;;2.80;;
50671;SDS011;46021;55.882;37.654;2022-08-19T13:32:57;11.98;;;3.15;;
50671;SDS011;46021;55.882;37.654;2022-08-19T13:35:36;7.35;;;3.00;;
50671;SDS011;46021;55.882;37.654;2022-08-19T13:40:31;9.13;;;3.50;;
50671;SDS011;46021;55.882;37.654;2022-08-19T13:42:59;16.98;;;3.60;;
50671;SDS011;46021;55.882;37.654;2022-08-19T13:45:28;10.10;;;3.47;;
50671;SDS011;46021;55.882;37.654;2022-08-19T13:47:56;8.27;;;4.72;;
50671;SDS011;46021;55.882;37.654;2022-08-19T13:50:25;16.02;;;5.13;;
50671;SDS011;46021;55.882;37.654;2022-08-19T13:52:54;7.57;;;2.83;;
50671;SDS011;46021;55.882;37.654;2022-08-19T13:55:21;8.90;;;3.45;;
50671;SDS011;46021;55.882;37.654;2022-08-19T13:57:50;10.23;;;3.22;;
50671;SDS011;46021;55.882;37.654;2022-08-19T14:00:18;10.75;;;3.58;;
50671;SDS011;46021;55.882;37.654;2022-08-19T14:05:15;11.05;;;3.72;;
50671;SDS011;46021;55.882;37.654;2022-08-19T14:07:41;10.98;;;3.78;;
50671;SDS011;46021;55.882;37.654;2022-08-19T14:10:09;6.45;;;3.03;;
50671;SDS011;46021;55.882;37.654;2022-08-19T14:12:37;9.93;;;4.50;;
50671;SDS011;46021;55.882;37.654;2022-08-19T14:15:06;10.73;;;5.32;;
50671;SDS011;46021;55.882;37.654;2022-08-19T14:17:36;9.20;;;4.65;;
50671;SDS011;46021;55.882;37.654;2022-08-19T14:20:04;7.00;;;3.13;;
50671;SDS011;46021;55.882;37.654;2022-08-19T14:22:34;7.30;;;3.35;;
50671;SDS011;46021;55.882;37.654;2022-08-19T14:25:02;7.35;;;3.03;;
50671;SDS011;46021;55.882;37.654;2022-08-19T14:27:28;5.85;;;3.33;;
50671;SDS011;46021;55.882;37.654;2022-08-19T14:29:55;12.60;;;4.13;;
50671;SDS011;46021;55.882;37.654;2022-08-19T14:32:22;11.37;;;3.30;;
50671;SDS011;46021;55.882;37.654;2022-08-19T14:34:55;12.88;;;3.42;;
50671;SDS011;46021;55.882;37.654;2022-08-19T14:37:21;7.70;;;3.55;;
50671;SDS011;46021;55.882;37.654;2022-08-19T14:39:48;7.70;;;2.80;;
50671;SDS011;46021;55.882;37.654;2022-08-19T14:42:14;13.03;;;3.23;;
50671;SDS011;46021;55.882;37.654;2022-08-19T14:44:41;7.97;;;2.75;;
50671;SDS011;46021;55.882;37.654;2022-08-19T14:47:08;4.75;;;3.42;;
50671;SDS011;46021;55.882;37.654;2022-08-19T14:49:36;10.85;;;3.47;;
50671;SDS011;46021;55.882;37.654;2022-08-19T14:52:03;7.80;;;3.17;;
50671;SDS011;46021;55.882;37.654;2022-08-19T14:54:29;7.15;;;2.85;;
50671;SDS011;46021;55.882;37.654;2022-08-19T14:56:56;9.20;;;3.20;;
50671;SDS011;46021;55.882;37.654;2022-08-19T14:59:23;5.38;;;2.83;;